Terminal Aerodrome Forecast
Issued by NWS

Home | Current Version | Previous Version | Text Only | Print | Product List | Glossary On
Versions: 1 2 3 4 5 6 7 8 9 10 11 12 13 14 15 16 17 18 19
000
FTUS42 KTBW 300140 AAA
TAFLAL
TAF AMD
KLAL 300140Z 3002/3024 00000KT P6SM BKN015
      TEMPO 3002/3004 SCT015 BKN200
     FM300400 00000KT P6SM BKN200
     FM301500 24007KT P6SM VCTS SCT045CB
     FM301800 25008KT P6SM SHRA SCT035 BKN090
      AMD NOT SKED 3003/3012=

USA.gov is the U.S. government's official web portal to all federal, state and local government web resources and services.